createdAt,value
2018-06-20T00:00:49.325Z,979.1
2018-06-20T00:01:59.058Z,979.03
2018-06-20T00:03:08.799Z,979.07
2018-06-20T00:04:18.544Z,979.05
2018-06-20T00:05:28.009Z,979.06
2018-06-20T00:06:37.744Z,979.04
2018-06-20T00:07:47.745Z,979
2018-06-20T00:08:57.747Z,979.04
2018-06-20T00:10:07.486Z,979.1
2018-06-20T00:11:16.959Z,979.03
2018-06-20T00:12:26.968Z,979.08
2018-06-20T00:13:36.970Z,979.15
2018-06-20T00:14:46.976Z,979.15
2018-06-20T00:15:56.974Z,979.1
2018-06-20T00:17:06.181Z,979.13
2018-06-20T00:18:16.184Z,979.12
2018-06-20T00:19:26.187Z,979.06
2018-06-20T00:20:36.197Z,979.04
2018-06-20T00:21:45.937Z,979.08
2018-06-20T00:22:55.138Z,979.09
2018-06-20T00:24:04.608Z,979.14
2018-06-20T00:25:14.340Z,979.15
2018-06-20T00:26:24.086Z,979.11
2018-06-20T00:27:34.088Z,979.1
2018-06-20T00:28:43.837Z,979.1
2018-06-20T00:29:53.569Z,979.06
2018-06-20T00:31:03.579Z,979.06
2018-06-20T00:32:13.060Z,979.04
2018-06-20T00:33:23.072Z,979.04
2018-06-20T00:34:32.548Z,979.03
2018-06-20T00:35:42.284Z,979.02
2018-06-20T00:36:51.490Z,979.06
2018-06-20T00:38:01.501Z,979.04
2018-06-20T00:39:11.248Z,979.05
2018-06-20T00:40:21.254Z,979.07
2018-06-20T00:41:30.990Z,979.07
2018-06-20T00:42:41.016Z,979.07
2018-06-20T00:43:50.807Z,979.11
2018-06-20T00:45:00.539Z,979.11
2018-06-20T00:46:10.544Z,979.12
2018-06-20T00:47:20.541Z,979.12
2018-06-20T00:48:30.281Z,979.14
2018-06-20T00:49:40.287Z,979.14
2018-06-20T00:50:50.024Z,979.16
2018-06-20T00:51:59.493Z,979.21
2018-06-20T00:53:09.230Z,979.16
2018-06-20T00:54:18.968Z,979.18
2018-06-20T00:55:28.699Z,979.18
2018-06-20T00:56:38.432Z,979.23
2018-06-20T00:57:48.432Z,979.18
2018-06-20T00:58:58.436Z,979.22
2018-06-20T01:00:08.169Z,979.21
2018-06-20T01:01:18.192Z,979.18
2018-06-20T01:02:27.927Z,979.22
2018-06-20T01:03:37.402Z,979.24
2018-06-20T01:04:47.404Z,979.24
2018-06-20T01:05:57.143Z,979.2
2018-06-20T01:07:06.081Z,979.21
2018-06-20T01:08:15.821Z,979.24
2018-06-20T01:09:25.825Z,979.27
2018-06-20T01:10:35.565Z,979.32
2018-06-20T01:11:45.685Z,979.3
2018-06-20T01:12:56.712Z,979.27
2018-06-20T01:14:06.240Z,979.36
2018-06-20T01:15:16.240Z,979.36
2018-06-20T01:16:25.973Z,979.35
2018-06-20T01:17:35.980Z,979.38
2018-06-20T01:18:45.715Z,979.42
2018-06-20T01:19:55.449Z,979.35
2018-06-20T01:21:05.455Z,979.29
2018-06-20T01:22:15.465Z,979.27
2018-06-20T01:23:25.465Z,979.36
2018-06-20T01:24:35.200Z,979.29
2018-06-20T01:25:45.217Z,979.32
2018-06-20T01:26:55.221Z,979.32
2018-06-20T01:28:05.226Z,979.27
2018-06-20T01:29:14.955Z,979.24
2018-06-20T01:30:24.692Z,979.19
2018-06-20T01:31:34.427Z,979.13
2018-06-20T01:32:44.168Z,979.11
2018-06-20T01:33:53.901Z,979.07
2018-06-20T01:35:03.634Z,979.04
2018-06-20T01:36:13.374Z,979.06
2018-06-20T01:37:23.380Z,979.05
2018-06-20T01:38:33.126Z,979.07
2018-06-20T01:39:43.126Z,979.04
2018-06-20T01:40:53.427Z,979.1
2018-06-20T01:42:03.423Z,979.16
2018-06-20T01:43:13.434Z,979.05
2018-06-20T01:44:23.177Z,979.01
2018-06-20T01:45:32.917Z,979.05
2018-06-20T01:46:42.921Z,979.06
2018-06-20T01:47:52.120Z,979.04
2018-06-20T01:49:01.849Z,979.05
2018-06-20T01:50:11.587Z,979.08
2018-06-20T01:51:21.061Z,979.12
2018-06-20T01:52:30.794Z,979.15
2018-06-20T01:53:40.824Z,979.13
2018-06-20T01:54:50.563Z,979.13
2018-06-20T01:56:00.307Z,979.15
2018-06-20T01:57:09.791Z,979.16
2018-06-20T01:58:19.260Z,979.19
2018-06-20T01:59:29.298Z,979.16
2018-06-20T02:00:39.297Z,979.22
2018-06-20T02:01:49.299Z,979.17
2018-06-20T02:02:59.297Z,979.18
2018-06-20T02:04:09.035Z,979.21
2018-06-20T02:05:18.510Z,979.19
2018-06-20T02:06:28.248Z,979.25
2018-06-20T02:07:37.988Z,979.27
2018-06-20T02:08:47.984Z,979.3
2018-06-20T02:09:57.719Z,979.31
2018-06-20T02:11:07.457Z,979.32
2018-06-20T02:12:16.927Z,979.37
2018-06-20T02:13:26.929Z,979.43
2018-06-20T02:14:36.924Z,979.46
2018-06-20T02:15:46.923Z,979.5
2018-06-20T02:16:56.925Z,979.46
2018-06-20T02:18:06.665Z,979.44
2018-06-20T02:19:16.159Z,979.46
2018-06-20T02:20:26.163Z,979.41
2018-06-20T02:21:35.901Z,979.45
2018-06-20T02:22:45.902Z,979.38
2018-06-20T02:23:55.637Z,979.39
2018-06-20T02:25:05.108Z,979.34
2018-06-20T02:26:14.589Z,979.37
2018-06-20T02:27:24.321Z,979.38
2018-06-20T02:28:34.068Z,979.34
2018-06-20T02:29:44.076Z,979.28
2018-06-20T02:30:54.075Z,979.3
2018-06-20T02:32:03.815Z,979.3
2018-06-20T02:33:13.820Z,979.3
2018-06-20T02:34:23.557Z,979.35
2018-06-20T02:35:33.561Z,979.32
2018-06-20T02:36:43.604Z,979.33
2018-06-20T02:37:53.987Z,979.33
2018-06-20T02:39:03.745Z,979.42
2018-06-20T02:40:13.747Z,979.42
2018-06-20T02:41:23.224Z,979.46
2018-06-20T02:42:33.236Z,979.38
2018-06-20T02:43:42.971Z,979.44
2018-06-20T02:44:52.452Z,979.37
2018-06-20T02:46:02.189Z,979.34
2018-06-20T02:47:11.937Z,979.32
2018-06-20T02:48:21.954Z,979.34
2018-06-20T02:49:31.426Z,979.3
2018-06-20T02:50:41.451Z,979.31
2018-06-20T02:51:51.460Z,979.36
2018-06-20T02:53:01.205Z,979.38
2018-06-20T02:54:10.947Z,979.4
2018-06-20T02:55:20.718Z,979.43
2018-06-20T02:56:30.475Z,979.46
2018-06-20T02:57:40.212Z,979.46
2018-06-20T02:58:50.237Z,979.45
2018-06-20T03:00:00.249Z,979.47
2018-06-20T03:03:42.582Z,979.37
2018-06-20T03:04:51.792Z,979.38
2018-06-20T03:06:01.816Z,979.37
2018-06-20T03:07:11.856Z,979.37
2018-06-20T03:08:21.882Z,979.37
2018-06-20T03:09:31.889Z,979.4
2018-06-20T03:10:41.641Z,979.41
2018-06-20T03:11:51.384Z,979.4
2018-06-20T03:13:00.603Z,979.42
2018-06-20T03:14:10.614Z,979.45
2018-06-20T03:15:20.108Z,979.43
2018-06-20T03:16:29.853Z,979.39
2018-06-20T03:17:39.327Z,979.36
2018-06-20T03:18:49.329Z,979.4
2018-06-20T03:19:59.331Z,979.36
2018-06-20T03:21:08.803Z,979.35
2018-06-20T03:22:18.550Z,979.29
2018-06-20T03:23:28.554Z,979.29
2018-06-20T03:24:38.556Z,979.23
2018-06-20T03:25:48.566Z,979.19
2018-06-20T03:26:58.575Z,979.21
2018-06-20T03:28:08.574Z,979.16
2018-06-20T03:29:18.577Z,979.13
2018-06-20T03:30:28.579Z,979.15
2018-06-20T03:31:37.801Z,979.18
2018-06-20T03:32:47.276Z,979.19
2018-06-20T03:33:57.276Z,979.16
2018-06-20T03:35:06.758Z,979.19
2018-06-20T03:36:16.762Z,979.15
2018-06-20T03:37:26.509Z,979.2
2018-06-20T03:38:36.516Z,979.26
2018-06-20T03:39:46.520Z,979.24
2018-06-20T03:40:56.264Z,979.27
2018-06-20T03:42:06.272Z,979.29
2018-06-20T03:43:16.013Z,979.31
2018-06-20T03:44:26.030Z,979.33
2018-06-20T03:45:36.040Z,979.39
2018-06-20T03:46:45.776Z,979.38
2018-06-20T03:47:55.786Z,979.4
2018-06-20T03:49:05.792Z,979.42
2018-06-20T03:50:15.535Z,979.45
2018-06-20T03:51:25.002Z,979.44
2018-06-20T03:52:34.743Z,979.4
2018-06-20T03:53:44.742Z,979.43
2018-06-20T03:54:54.743Z,979.43
2018-06-20T03:56:04.481Z,979.48
2018-06-20T03:57:13.949Z,979.47
2018-06-20T03:58:23.952Z,979.41
2018-06-20T03:59:33.423Z,979.37
2018-06-20T04:00:43.436Z,979.36
2018-06-20T04:01:53.178Z,979.35
2018-06-20T04:03:03.177Z,979.44
2018-06-20T04:04:12.914Z,979.38
2018-06-20T04:05:22.922Z,979.4
2018-06-20T04:06:32.928Z,979.35
2018-06-20T04:07:42.989Z,979.38
2018-06-20T04:08:52.736Z,979.38
2018-06-20T04:10:02.487Z,979.39
2018-06-20T04:11:12.224Z,979.38
2018-06-20T04:12:22.235Z,979.38
2018-06-20T04:13:32.237Z,979.45
2018-06-20T04:14:41.980Z,979.39
2018-06-20T04:15:51.737Z,979.34
2018-06-20T04:17:01.740Z,979.4
2018-06-20T04:18:11.218Z,979.38
2018-06-20T04:19:21.444Z,979.41
2018-06-20T04:20:31.177Z,979.45
2018-06-20T04:21:41.185Z,979.43
2018-06-20T04:22:51.191Z,979.44
2018-06-20T04:24:00.962Z,979.49
2018-06-20T04:25:10.963Z,979.52
2018-06-20T04:26:20.982Z,979.51
2018-06-20T04:27:30.987Z,979.48
2018-06-20T04:28:40.735Z,979.46
2018-06-20T04:29:50.469Z,979.46
2018-06-20T04:31:00.498Z,979.42
2018-06-20T04:32:09.980Z,979.5
2018-06-20T04:33:19.441Z,979.51
2018-06-20T04:34:28.907Z,979.51
2018-06-20T04:35:39.271Z,979.55
2018-06-20T04:36:48.737Z,979.56
2018-06-20T04:37:58.739Z,979.59
2018-06-20T04:39:08.740Z,979.61
2018-06-20T04:40:18.751Z,979.66
2018-06-20T04:41:28.754Z,979.63
2018-06-20T04:42:38.754Z,979.71
2018-06-20T04:43:48.492Z,979.68
2018-06-20T04:44:58.501Z,979.71
2018-06-20T04:46:07.980Z,979.76
2018-06-20T04:47:17.735Z,979.78
2018-06-20T04:48:27.473Z,979.85
2018-06-20T04:49:37.215Z,979.82
2018-06-20T04:50:46.683Z,979.8
2018-06-20T04:51:56.423Z,979.8
2018-06-20T04:53:06.494Z,979.8
2018-06-20T04:54:16.232Z,979.77
2018-06-20T04:55:25.969Z,979.77
2018-06-20T04:56:35.859Z,979.79
2018-06-20T04:57:45.599Z,979.75
2018-06-20T04:58:55.348Z,979.76
2018-06-20T05:00:05.105Z,979.81
2018-06-20T05:01:14.852Z,979.73
2018-06-20T05:02:24.319Z,979.74
2018-06-20T05:03:33.525Z,979.73
2018-06-20T05:04:42.462Z,979.76
2018-06-20T05:05:52.204Z,979.76
2018-06-20T05:07:02.213Z,979.7
2018-06-20T05:08:12.221Z,979.7
2018-06-20T05:09:21.963Z,979.74
2018-06-20T05:10:31.452Z,979.7
2018-06-20T05:11:41.191Z,979.71
2018-06-20T05:12:50.980Z,979.78
2018-06-20T05:14:00.717Z,979.7
2018-06-20T05:15:10.454Z,979.7
2018-06-20T05:16:19.923Z,979.78
2018-06-20T05:17:29.947Z,979.77
2018-06-20T05:18:39.955Z,979.8
2018-06-20T05:19:49.691Z,979.86
2018-06-20T05:20:58.895Z,979.85
2018-06-20T05:22:08.378Z,979.86
2018-06-20T05:23:18.400Z,979.84
2018-06-20T05:24:28.415Z,979.9
2018-06-20T05:25:38.417Z,979.91
2018-06-20T05:26:48.158Z,979.92
2018-06-20T05:27:57.903Z,979.92
2018-06-20T05:29:07.651Z,979.9
2018-06-20T05:30:16.846Z,979.87
2018-06-20T05:31:26.589Z,979.9
2018-06-20T05:32:36.591Z,979.91
2018-06-20T05:33:46.406Z,979.9
2018-06-20T05:34:55.902Z,979.83
2018-06-20T05:36:05.385Z,979.85
2018-06-20T05:37:15.405Z,979.79
2018-06-20T05:38:25.148Z,979.83
2018-06-20T05:39:34.880Z,979.79
2018-06-20T05:40:44.624Z,979.78
2018-06-20T05:41:54.629Z,979.78
2018-06-20T05:43:04.106Z,979.8
2018-06-20T05:44:13.841Z,979.75
2018-06-20T05:45:23.846Z,979.69
2018-06-20T05:46:33.845Z,979.71
2018-06-20T05:47:43.865Z,979.65
2018-06-20T05:48:53.616Z,979.66
2018-06-20T05:50:03.629Z,979.62
2018-06-20T05:51:13.370Z,979.64
2018-06-20T05:52:23.394Z,979.67
2018-06-20T05:53:33.400Z,979.71
2018-06-20T05:54:43.462Z,979.62
2018-06-20T05:55:53.495Z,979.57
2018-06-20T05:57:02.972Z,979.53
2018-06-20T05:58:12.715Z,979.6
2018-06-20T05:59:22.717Z,979.65
2018-06-20T06:00:32.736Z,979.63
2018-06-20T06:01:42.478Z,979.7
2018-06-20T06:02:52.490Z,979.77
2018-06-20T06:04:02.501Z,979.76
2018-06-20T06:05:12.297Z,979.76
2018-06-20T06:06:22.604Z,979.7
2018-06-20T06:07:32.604Z,979.66
2018-06-20T06:08:42.079Z,979.66
2018-06-20T06:09:52.085Z,979.61
2018-06-20T06:11:01.823Z,979.64
2018-06-20T06:12:11.035Z,979.64
2018-06-20T06:13:20.772Z,979.6
2018-06-20T06:14:29.984Z,979.59
2018-06-20T06:15:40.056Z,979.62
2018-06-20T06:16:50.119Z,979.61
2018-06-20T06:18:00.268Z,979.63
2018-06-20T06:19:10.011Z,979.58
2018-06-20T06:20:19.748Z,979.61
2018-06-20T06:21:29.760Z,979.66
2018-06-20T06:22:39.230Z,979.61
2018-06-20T06:23:48.710Z,979.62
2018-06-20T06:24:58.450Z,979.61
2018-06-20T06:26:07.663Z,979.56
2018-06-20T06:27:17.420Z,979.53
2018-06-20T06:28:26.890Z,979.52
2018-06-20T06:29:36.898Z,979.59
2018-06-20T06:30:46.904Z,979.55
2018-06-20T06:31:56.114Z,979.57
2018-06-20T06:33:05.857Z,979.52
2018-06-20T06:34:15.861Z,979.5
2018-06-20T06:35:25.868Z,979.52
2018-06-20T06:36:35.880Z,979.44
2018-06-20T06:37:45.171Z,979.51
2018-06-20T06:38:57.249Z,979.53
2018-06-20T06:40:07.250Z,979.52
2018-06-20T06:41:17.257Z,979.58
2018-06-20T06:42:27.003Z,979.56
2018-06-20T06:43:36.742Z,979.56
2018-06-20T06:44:46.481Z,979.56
2018-06-20T06:45:56.226Z,979.5
2018-06-20T06:47:05.698Z,979.51
2018-06-20T06:48:15.710Z,979.52
2018-06-20T06:49:25.717Z,979.57
2018-06-20T06:50:35.635Z,979.55
2018-06-20T06:51:45.711Z,979.61
2018-06-20T06:52:55.723Z,979.64
2018-06-20T06:54:05.777Z,979.62
2018-06-20T06:55:15.607Z,979.69
2018-06-20T06:56:26.821Z,979.67
2018-06-20T06:57:36.560Z,979.72
2018-06-20T06:58:46.310Z,979.7
2018-06-20T06:59:56.064Z,979.77
2018-06-20T07:01:06.070Z,979.76
2018-06-20T07:02:16.085Z,979.72
2018-06-20T07:03:25.828Z,979.7
2018-06-20T07:04:35.595Z,979.68
2018-06-20T07:05:45.338Z,979.68
2018-06-20T07:06:55.353Z,979.73
2018-06-20T07:08:05.098Z,979.71
2018-06-20T07:09:14.911Z,979.78
2018-06-20T07:10:25.166Z,979.77
2018-06-20T07:11:34.910Z,979.74
2018-06-20T07:12:44.643Z,979.74
2018-06-20T07:13:54.163Z,979.71
2018-06-20T07:15:04.174Z,979.67
2018-06-20T07:16:13.919Z,979.65
2018-06-20T07:17:23.712Z,979.64
2018-06-20T07:18:33.723Z,979.69
2018-06-20T07:19:43.193Z,979.7
2018-06-20T07:20:52.969Z,979.68
2018-06-20T07:22:02.975Z,979.66
2018-06-20T07:23:12.986Z,979.63
2018-06-20T07:24:22.764Z,979.58
2018-06-20T07:25:32.829Z,979.6
2018-06-20T07:26:42.571Z,979.54
2018-06-20T07:27:51.779Z,979.57
2018-06-20T07:29:01.519Z,979.6
2018-06-20T07:30:11.278Z,979.63
2018-06-20T07:31:20.825Z,979.67
2018-06-20T07:32:30.298Z,979.65
2018-06-20T07:33:40.311Z,979.63
2018-06-20T07:34:50.058Z,979.64
2018-06-20T07:36:00.146Z,979.58
2018-06-20T07:37:09.904Z,979.57
2018-06-20T07:38:19.906Z,979.59
2018-06-20T07:39:29.651Z,979.58
2018-06-20T07:40:39.401Z,979.6
2018-06-20T07:41:49.405Z,979.62
2018-06-20T07:42:59.189Z,979.63
2018-06-20T07:44:08.938Z,979.65
2018-06-20T07:45:18.940Z,979.69
2018-06-20T07:46:28.959Z,979.65
2018-06-20T07:47:38.964Z,979.73
2018-06-20T07:48:49.147Z,979.74
2018-06-20T07:49:59.155Z,979.78
2018-06-20T07:51:08.692Z,979.79
2018-06-20T07:52:18.706Z,979.79
2018-06-20T07:53:28.181Z,979.8
2018-06-20T07:54:37.918Z,979.78
2018-06-20T07:55:47.950Z,979.85
2018-06-20T07:56:57.153Z,979.81
2018-06-20T07:58:07.169Z,979.82
2018-06-20T07:59:16.912Z,979.79
2018-06-20T08:00:26.918Z,979.75
2018-06-20T08:01:36.388Z,979.74
2018-06-20T08:02:46.406Z,979.69
2018-06-20T08:03:55.877Z,979.71
2018-06-20T08:05:05.616Z,979.65
2018-06-20T08:06:15.394Z,979.63
2018-06-20T08:07:25.997Z,979.63
2018-06-20T08:08:35.740Z,979.63
2018-06-20T08:09:45.749Z,979.58
2018-06-20T08:10:55.496Z,979.53
2018-06-20T08:12:05.242Z,979.57
2018-06-20T08:13:14.982Z,979.46
2018-06-20T08:14:24.190Z,979.49
2018-06-20T08:15:33.932Z,979.54
2018-06-20T08:16:43.411Z,979.53
2018-06-20T08:17:52.673Z,979.5
2018-06-20T08:19:02.147Z,979.54
2018-06-20T08:20:11.621Z,979.57
2018-06-20T08:21:21.090Z,979.59
2018-06-20T08:22:30.828Z,979.69
2018-06-20T08:23:40.571Z,979.69
2018-06-20T08:24:50.583Z,979.69
2018-06-20T08:26:00.596Z,979.74
2018-06-20T08:27:09.802Z,979.76
2018-06-20T08:28:19.276Z,979.79
2018-06-20T08:29:29.014Z,979.79
2018-06-20T08:30:38.754Z,979.8
2018-06-20T08:31:48.503Z,979.79
2018-06-20T08:32:58.247Z,979.72
2018-06-20T08:34:08.263Z,979.69
2018-06-20T08:35:18.092Z,979.71
2018-06-20T08:36:28.100Z,979.72
2018-06-20T08:37:37.839Z,979.75
2018-06-20T08:38:47.844Z,979.71
2018-06-20T08:39:57.577Z,979.7
2018-06-20T08:41:07.318Z,979.7
2018-06-20T08:42:17.071Z,979.66
2018-06-20T08:43:26.893Z,979.72
2018-06-20T08:44:36.897Z,979.66
2018-06-20T08:45:46.371Z,979.68
2018-06-20T08:46:56.367Z,979.67
2018-06-20T08:48:06.105Z,979.69
2018-06-20T08:49:15.854Z,979.71
2018-06-20T08:50:25.870Z,979.72
2018-06-20T08:51:35.880Z,979.78
2018-06-20T08:52:45.895Z,979.75
2018-06-20T08:53:55.650Z,979.73
2018-06-20T08:55:05.126Z,979.69
2018-06-20T08:56:14.602Z,979.78
2018-06-20T08:57:24.341Z,979.78
2018-06-20T08:58:34.090Z,979.81
2018-06-20T08:59:43.826Z,979.77
2018-06-20T09:00:53.299Z,979.78
2018-06-20T09:02:03.042Z,979.7
2018-06-20T09:03:13.315Z,979.7
2018-06-20T09:04:23.053Z,979.67
2018-06-20T09:05:32.549Z,979.69
2018-06-20T09:06:42.556Z,979.7
2018-06-20T09:07:52.292Z,979.73
2018-06-20T09:09:02.302Z,979.76
2018-06-20T09:10:12.368Z,979.75
2018-06-20T09:11:21.618Z,979.69
2018-06-20T09:12:31.357Z,979.74
2018-06-20T09:13:41.356Z,979.69
2018-06-20T09:14:51.366Z,979.71
2018-06-20T09:16:01.378Z,979.72
2018-06-20T09:17:10.867Z,979.69
2018-06-20T09:18:20.347Z,979.71
2018-06-20T09:19:30.183Z,979.73
2018-06-20T09:20:40.192Z,979.67
2018-06-20T09:21:49.940Z,979.64
2018-06-20T09:23:00.030Z,979.59
2018-06-20T09:24:09.245Z,979.56
2018-06-20T09:25:18.991Z,979.59
2018-06-20T09:26:28.745Z,979.57
2018-06-20T09:27:38.747Z,979.52
2018-06-20T09:28:48.241Z,979.52
2018-06-20T09:29:57.998Z,979.47
2018-06-20T09:31:08.397Z,979.41
2018-06-20T09:32:18.407Z,979.4
2018-06-20T09:33:28.420Z,979.47
2018-06-20T09:34:38.161Z,979.48
2018-06-20T09:35:47.904Z,979.48
2018-06-20T09:36:57.649Z,979.49
2018-06-20T09:38:07.393Z,979.4
2018-06-20T09:39:17.143Z,979.4
2018-06-20T09:40:26.350Z,979.42
2018-06-20T09:41:35.820Z,979.48
2018-06-20T09:42:45.822Z,979.39
2018-06-20T09:43:55.829Z,979.37
2018-06-20T09:45:05.083Z,979.36
2018-06-20T09:46:14.556Z,979.4
2018-06-20T09:47:24.568Z,979.39
2018-06-20T09:48:34.573Z,979.43
2018-06-20T09:49:44.316Z,979.44
2018-06-20T09:50:53.874Z,979.45
2018-06-20T09:52:03.897Z,979.48
2018-06-20T09:53:13.642Z,979.45
2018-06-20T09:54:22.948Z,979.44
2018-06-20T09:55:32.710Z,979.45
2018-06-20T09:56:42.776Z,979.45
2018-06-20T09:57:52.540Z,979.4
2018-06-20T09:59:02.647Z,979.42
2018-06-20T10:00:12.391Z,979.34
2018-06-20T10:01:22.180Z,979.42
2018-06-20T10:02:32.006Z,979.38
2018-06-20T10:03:40.949Z,979.37
2018-06-20T10:04:50.953Z,979.29
2018-06-20T10:06:01.020Z,979.3
2018-06-20T10:07:10.784Z,979.26
2018-06-20T10:08:20.795Z,979.29
2018-06-20T10:09:30.806Z,979.2
2018-06-20T10:10:40.860Z,979.28
2018-06-20T10:11:50.870Z,979.26
2018-06-20T10:13:00.612Z,979.27
2018-06-20T10:14:10.415Z,979.2
2018-06-20T10:15:20.157Z,979.19
2018-06-20T10:16:30.166Z,979.22
2018-06-20T10:17:39.928Z,979.17
2018-06-20T10:18:49.399Z,979.13
2018-06-20T10:19:59.138Z,979.1
2018-06-20T10:21:08.666Z,979.16
2018-06-20T10:22:19.506Z,979.19
2018-06-20T10:23:29.009Z,979.13
2018-06-20T10:24:38.752Z,979.16
2018-06-20T10:25:48.754Z,979.16
2018-06-20T10:26:58.766Z,979.16
2018-06-20T10:28:08.253Z,979.18
2018-06-20T10:29:18.264Z,979.19
2018-06-20T10:30:28.011Z,979.15
2018-06-20T10:31:37.488Z,979.08
2018-06-20T10:32:47.491Z,979.07
2018-06-20T10:33:57.234Z,979.11
2018-06-20T10:35:07.304Z,979.05
2018-06-20T10:36:16.777Z,979.05
2018-06-20T10:37:26.519Z,979
2018-06-20T10:38:36.536Z,979
2018-06-20T10:39:46.276Z,978.96
2018-06-20T10:40:56.220Z,978.96
2018-06-20T10:42:05.696Z,978.96
2018-06-20T10:43:14.903Z,979.01
2018-06-20T10:44:24.916Z,978.98
2018-06-20T10:45:34.921Z,979.02
2018-06-20T10:46:44.661Z,978.93
2018-06-20T10:47:54.666Z,978.92
2018-06-20T10:49:04.413Z,979
2018-06-20T10:50:13.893Z,979.03
2018-06-20T10:51:23.369Z,979.05
2018-06-20T10:52:33.374Z,979.09
2018-06-20T10:53:43.123Z,978.99
2018-06-20T10:54:52.880Z,978.96
2018-06-20T10:56:02.894Z,978.99
2018-06-20T10:57:12.636Z,979.01
2018-06-20T10:58:22.381Z,979
2018-06-20T10:59:32.398Z,979.01
2018-06-20T11:00:41.664Z,978.99
2018-06-20T11:01:51.776Z,978.94
2018-06-20T11:03:01.789Z,979
2018-06-20T11:04:11.269Z,979.03
2018-06-20T11:05:21.278Z,979.07
2018-06-20T11:06:31.296Z,979.08
2018-06-20T11:07:41.299Z,979.06
2018-06-20T11:08:50.773Z,979.07
2018-06-20T11:10:00.791Z,979.05
2018-06-20T11:11:10.536Z,978.95
2018-06-20T11:12:20.331Z,978.94
2018-06-20T11:13:30.079Z,978.97
2018-06-20T11:14:39.832Z,978.89
2018-06-20T11:15:49.573Z,978.91
2018-06-20T11:16:59.596Z,978.92
2018-06-20T11:18:09.605Z,978.92
2018-06-20T11:19:19.659Z,978.97
2018-06-20T11:20:29.398Z,978.97
2018-06-20T11:21:39.410Z,978.91
2018-06-20T11:22:48.883Z,978.87
2018-06-20T11:23:58.624Z,978.85
2018-06-20T11:25:08.378Z,978.84
2018-06-20T11:26:18.131Z,978.84
2018-06-20T11:27:27.641Z,978.8
2018-06-20T11:28:37.120Z,978.78
2018-06-20T11:29:46.604Z,978.77
2018-06-20T11:30:56.085Z,978.73
2018-06-20T11:32:06.226Z,978.69
2018-06-20T11:33:15.971Z,978.71
2018-06-20T11:34:25.983Z,978.66
2018-06-20T11:35:35.464Z,978.67
2018-06-20T11:36:45.470Z,978.67
2018-06-20T11:37:54.947Z,978.68
2018-06-20T11:39:04.954Z,978.65
2018-06-20T11:40:14.433Z,978.62
2018-06-20T11:41:24.543Z,978.64
2018-06-20T11:42:34.288Z,978.65
2018-06-20T11:43:44.304Z,978.68
2018-06-20T11:44:54.320Z,978.64
2018-06-20T11:46:04.327Z,978.61
2018-06-20T11:47:14.169Z,978.58
2018-06-20T11:48:23.914Z,978.5
2018-06-20T11:49:33.932Z,978.46
2018-06-20T11:50:43.677Z,978.52
2018-06-20T11:51:53.157Z,978.52
2018-06-20T11:53:02.634Z,978.58
2018-06-20T11:54:12.392Z,978.47
2018-06-20T11:55:22.400Z,978.58
2018-06-20T11:56:31.887Z,978.48
2018-06-20T11:57:41.903Z,978.42
2018-06-20T11:58:51.377Z,978.37
2018-06-20T12:00:01.123Z,978.36
2018-06-20T12:01:10.874Z,978.43
2018-06-20T12:02:20.614Z,978.45
2018-06-20T12:03:30.371Z,978.51
2018-06-20T12:04:40.430Z,978.44
2018-06-20T12:05:49.904Z,978.44
2018-06-20T12:06:59.919Z,978.41
2018-06-20T12:08:09.668Z,978.37
2018-06-20T12:09:19.415Z,978.41
2018-06-20T12:10:29.165Z,978.52
2018-06-20T12:11:38.958Z,978.52
2018-06-20T12:12:48.970Z,978.51
2018-06-20T12:13:58.978Z,978.57
2018-06-20T12:15:08.464Z,978.44
2018-06-20T12:16:18.481Z,978.42
2018-06-20T12:17:28.229Z,978.47
2018-06-20T12:18:38.241Z,978.31
2018-06-20T12:19:48.263Z,978.3
2018-06-20T12:20:58.275Z,978.31
2018-06-20T12:22:08.017Z,978.41
2018-06-20T12:23:17.788Z,978.44
2018-06-20T12:24:27.538Z,978.25
2018-06-20T12:25:37.014Z,978.39
2018-06-20T12:26:46.504Z,978.33
2018-06-20T12:27:56.536Z,978.37
2018-06-20T12:29:06.561Z,978.36
2018-06-20T12:30:16.509Z,978.21
2018-06-20T12:31:26.529Z,978.17
2018-06-20T12:32:36.546Z,978.23
2018-06-20T12:33:46.662Z,978.21
2018-06-20T12:34:56.677Z,978.14
2018-06-20T12:36:05.890Z,978.24
2018-06-20T12:37:15.642Z,978.16
2018-06-20T12:38:25.656Z,978.16
2018-06-20T12:39:34.874Z,978.06
2018-06-20T12:40:44.633Z,978.05
2018-06-20T12:41:54.810Z,978.08
2018-06-20T12:43:04.867Z,978.16
2018-06-20T12:44:14.891Z,978.05
2018-06-20T12:45:24.499Z,977.99
2018-06-20T12:46:34.001Z,977.95
2018-06-20T12:47:43.758Z,977.96
2018-06-20T12:48:53.249Z,977.99
2018-06-20T12:50:03.313Z,977.94
2018-06-20T12:51:13.342Z,977.82
2018-06-20T12:52:23.362Z,977.99
2018-06-20T12:53:32.970Z,977.77
2018-06-20T12:54:42.987Z,977.78
2018-06-20T12:55:53.009Z,977.8
2018-06-20T12:57:02.225Z,977.77
2018-06-20T12:58:11.185Z,977.88
2018-06-20T12:59:21.111Z,977.81
2018-06-20T13:00:31.171Z,977.82
2018-06-20T13:01:41.192Z,977.69
2018-06-20T13:02:51.214Z,977.76
2018-06-20T13:04:00.989Z,977.58
2018-06-20T13:05:11.030Z,977.67
2018-06-20T13:06:21.055Z,977.69
2018-06-20T13:07:31.080Z,977.5
2018-06-20T13:08:41.107Z,977.58
2018-06-20T13:09:50.868Z,977.56
2018-06-20T13:11:00.891Z,977.57
2018-06-20T13:12:10.645Z,977.49
2018-06-20T13:13:20.669Z,977.46
2018-06-20T13:14:30.426Z,977.6
2018-06-20T13:15:40.176Z,977.24
2018-06-20T13:16:50.200Z,977.54
2018-06-20T13:18:00.231Z,977.48
2018-06-20T13:19:09.988Z,977.6
2018-06-20T13:20:19.755Z,977.08
2018-06-20T13:21:29.806Z,977.6
2018-06-20T13:22:40.267Z,977.57
2018-06-20T13:23:50.128Z,977.59
2018-06-20T13:24:59.996Z,977.49
2018-06-20T13:26:09.864Z,977.62
2018-06-20T13:27:19.618Z,977.47
2018-06-20T13:28:29.403Z,977.44
2018-06-20T13:29:39.224Z,977.7
2018-06-20T13:30:49.338Z,976.95
2018-06-20T13:31:58.564Z,976.95
2018-06-20T13:33:08.062Z,977.05
2018-06-20T13:34:17.816Z,977.01
2018-06-20T13:35:27.852Z,977.42
2018-06-20T13:36:37.619Z,977.95
2018-06-20T13:37:47.119Z,977.67
2018-06-20T13:38:56.879Z,977.04
2018-06-20T13:40:06.368Z,977.06
2018-06-20T13:41:16.391Z,977.15
2018-06-20T13:42:26.144Z,977.91
2018-06-20T13:43:35.629Z,977.68
2018-06-20T13:44:45.649Z,977.5
2018-06-20T13:45:55.666Z,977.54
2018-06-20T13:47:05.683Z,977.72
2018-06-20T13:48:15.167Z,977.54
2018-06-20T13:49:25.186Z,977.77
2018-06-20T13:50:34.936Z,977.82
2018-06-20T13:51:44.696Z,977.86
2018-06-20T13:52:54.714Z,976.97
2018-06-20T13:54:04.467Z,977.49
2018-06-20T13:55:14.227Z,977
2018-06-20T13:56:23.723Z,976.92
2018-06-20T13:57:33.473Z,976.91
2018-06-20T13:58:43.232Z,976.91
2018-06-20T13:59:53.251Z,977.04
2018-06-20T14:01:03.004Z,977.41
2018-06-20T14:02:12.755Z,976.94
2018-06-20T14:03:22.238Z,976.85
2018-06-20T14:04:31.989Z,976.82
2018-06-20T14:05:42.024Z,976.88
2018-06-20T14:06:52.040Z,976.85
2018-06-20T14:08:02.083Z,976.84
2018-06-20T14:09:11.565Z,976.83
2018-06-20T14:10:21.580Z,976.91
2018-06-20T14:11:30.801Z,976.91
2018-06-20T14:12:40.556Z,976.95
2018-06-20T14:13:50.583Z,976.98
2018-06-20T14:15:00.334Z,977.67
2018-06-20T14:16:10.083Z,977.55
2018-06-20T14:17:20.128Z,977.51
2018-06-20T14:18:31.892Z,977.44
2018-06-20T14:19:41.914Z,977.43
2018-06-20T14:20:51.667Z,977.43
2018-06-20T14:22:01.143Z,977.47
2018-06-20T14:23:10.898Z,977.09
2018-06-20T14:24:20.918Z,977.53
2018-06-20T14:25:30.671Z,977.48
2018-06-20T14:26:40.692Z,977.39
2018-06-20T14:27:50.447Z,977.36
2018-06-20T14:29:00.473Z,977.36
2018-06-20T14:30:09.956Z,977.44
2018-06-20T14:31:20.024Z,977.46
2018-06-20T14:32:29.238Z,977.48
2018-06-20T14:33:39.259Z,977.42
2018-06-20T14:34:49.014Z,977.46
2018-06-20T14:35:58.504Z,977.49
2018-06-20T14:37:08.259Z,977.42